Aviation Digital Data Service (ADDS)

Output produced by METARs form (0429 UTC 22 September 2017)
found at http://www.aviationweather.gov/adds/metars/
 
LOWG 220420Z AUTO VRB01KT 9999 FEW090 BKN120 05/04 Q1020 NOSIG
TAF LOWG 212315Z 2200/2224 34004KT 9999 FEW060 SCT080 TX18/2213Z TN07/2203Z
       
LOWI 220420Z 26003KT CAVOK 04/03 Q1023 NOSIG
TAF LOWI 212315Z 2200/2224 VRB02KT CAVOK TX19/2214Z TN05/2205Z 
     TEMPO 2202/2206 08003KT 9999 SCT008 
     BECMG 2210/2212 08007KT 
     BECMG 2216/2218 VRB02KT
       
LOWK 220420Z VRB01KT 9999 FEW005 BKN090 05/04 Q1022 NOSIG
TAF LOWK 212315Z 2200/2224 VRB02KT 9999 FEW060 SCT090 TX18/2214Z TN04/2205Z 
     PROB30 
     TEMPO 2201/2207 0500 BCFG FEW001
       
LOWL 220420Z 25003KT 220V290 9999 FEW080 SCT110 08/07 Q1021 NOSIG
TAF LOWL 212315Z 2200/2224 27003KT 9999 FEW030 BKN060 TX17/2214Z TN08/2205Z 
     TEMPO 2203/2209 VRB02KT 1200 BCFG SCT004 SCT070 
     PROB30 
     TEMPO 2204/2208 0200 FG VV002
       
LOWS 220420Z 15009KT 9999 SCT080 SCT120 08/06 Q1021 NOSIG
TAF LOWS 212315Z 2200/2224 15005KT CAVOK TX18/2212Z TN07/2203Z 
     TEMPO 2200/2207 VRB02KT 1200 BCFG NSC 
     PROB30 
     TEMPO 2200/2206 0300 FG VV003 
     BECMG 2207/2209 34005KT 9999 FEW050 SCT140 
     BECMG 2216/2218 15005KT CAVOK 
     TEMPO 2222/2224 VRB02KT 1200 BCFG NSC
       
LOWW 220420Z 30013KT 9999 FEW048 SCT063 BKN076 13/08 Q1019 NOSIG
TAF LOWW 212315Z 2200/2306 30014KT 9999 -RA FEW040 BKN060 TX17/2214Z TN10/2303Z 
     BECMG 2203/2205 CAVOK 
     TEMPO 2214/2220 9999 FEW040TCU BKN100
       
LOXZ 220420Z VRB01KT 12KM FEW002ST SCT230CI 03/02 Q1022 NOSIG
TAF LOXZ 220215Z 2203/2212 VRB03KT 9999 FEW060 SCT230